Time;durP1;ratioP1;P1;durP2;ratioP2;P2;SDS_P1;SDS_P2;PMS_P1;PMS_P2;Temp;Humidity;BMP_temperature;BMP_pressure;BME280_temperature;BME280_humidity;BME280_pressure;Samples;Min_cycle;Max_cycle;Signal;HPM_P1;HPM_P2
2023/02/26 00:00:20;;;;;;;14.30;13.00;;;-0.60;99.90;;;;;;5058298;28;20968;-70
2023/02/26 00:02:48;;;;;;;13.93;13.03;;;-0.70;99.90;;;;;;5060828;28;21370;-71
2023/02/26 00:05:16;;;;;;;17.67;14.17;;;-0.90;99.90;;;;;;5061967;28;20831;-69
2023/02/26 00:07:43;;;;;;;14.90;13.60;;;-0.80;99.90;;;;;;5058295;28;20462;-73
2023/02/26 00:10:13;;;;;;;17.47;14.23;;;-0.70;99.90;;;;;;5059355;28;20489;-72
2023/02/26 00:12:40;;;;;;;15.83;12.83;;;-0.70;99.90;;;;;;5056632;28;20487;-70
2023/02/26 00:15:11;;;;;;;14.70;13.70;;;-0.80;99.90;;;;;;5057808;28;20519;-73
2023/02/26 00:17:44;;;;;;;15.30;13.30;;;-0.90;99.90;;;;;;5055484;28;20459;-71
2023/02/26 00:20:15;;;;;;;15.13;13.70;;;-0.90;99.90;;;;;;5059865;28;20464;-71
2023/02/26 00:22:43;;;;;;;15.00;13.60;;;-1.00;99.90;;;;;;5053039;28;20491;-72
2023/02/26 00:25:11;;;;;;;14.83;13.60;;;-1.00;99.90;;;;;;5054462;28;20958;-70
2023/02/26 00:27:38;;;;;;;13.77;12.60;;;-0.90;99.90;;;;;;5051930;28;20977;-73
2023/02/26 00:30:08;;;;;;;14.30;13.10;;;-0.90;99.90;;;;;;5056589;28;20532;-72
2023/02/26 00:32:35;;;;;;;13.90;12.73;;;-0.80;99.90;;;;;;5060737;28;20474;-74
2023/02/26 00:35:05;;;;;;;13.60;12.60;;;-0.70;99.90;;;;;;5056819;28;20461;-71
2023/02/26 00:37:41;;;;;;;13.83;12.63;;;-0.70;99.90;;;;;;5063798;28;20990;-72
2023/02/26 00:40:18;;;;;;;15.73;12.67;;;-0.70;99.90;;;;;;5057657;28;20459;-71
2023/02/26 00:42:45;;;;;;;13.30;12.10;;;-0.60;99.90;;;;;;5053055;28;20560;-72
2023/02/26 00:45:14;;;;;;;14.70;13.50;;;-0.50;99.90;;;;;;5059504;28;20974;-72
2023/02/26 00:47:49;;;;;;;13.13;12.17;;;-0.50;99.90;;;;;;5059364;28;20535;-73
2023/02/26 00:50:20;;;;;;;14.17;12.77;;;-0.50;99.90;;;;;;5055389;28;20466;-72
2023/02/26 00:52:58;;;;;;;11.87;11.27;;;-0.40;99.90;;;;;;5054565;28;20462;-70
2023/02/26 00:55:26;;;;;;;12.27;11.47;;;-0.40;99.90;;;;;;5052205;28;20497;-69
2023/02/26 00:57:53;;;;;;;12.73;11.90;;;-0.40;99.90;;;;;;5060383;28;21265;-70
2023/02/26 01:00:21;;;;;;;22.50;13.63;;;-0.40;99.90;;;;;;5060640;28;20463;-70
2023/02/26 01:02:48;;;;;;;14.67;11.73;;;-0.30;99.90;;;;;;5060491;28;20482;-73
2023/02/26 01:05:18;;;;;;;12.23;11.33;;;-0.20;99.90;;;;;;5055742;28;20482;-72
2023/02/26 01:07:53;;;;;;;12.63;11.60;;;-0.20;99.90;;;;;;5053634;28;20537;-72
2023/02/26 01:10:20;;;;;;;12.67;11.60;;;-0.20;99.90;;;;;;5058954;28;20465;-73
2023/02/26 01:12:48;;;;;;;13.63;11.73;;;-0.20;99.90;;;;;;5053186;28;20490;-74
2023/02/26 01:15:15;;;;;;;14.67;12.30;;;-0.20;99.90;;;;;;5055610;28;20977;-71
2023/02/26 01:17:48;;;;;;;11.60;10.70;;;-0.20;99.90;;;;;;5052087;28;20491;-74
2023/02/26 01:20:20;;;;;;;13.80;12.63;;;-0.20;99.90;;;;;;5057793;28;20994;-70
2023/02/26 01:22:54;;;;;;;14.00;12.77;;;-0.20;99.90;;;;;;5061065;28;20583;-72
2023/02/26 01:25:26;;;;;;;12.30;11.40;;;-0.10;99.90;;;;;;5049231;28;20805;-73
2023/02/26 01:27:55;;;;;;;12.60;11.60;;;-0.20;99.90;;;;;;5057872;28;20977;-70
2023/02/26 01:30:24;;;;;;;16.77;12.13;;;-0.20;99.90;;;;;;5054822;28;20467;-73
2023/02/26 01:32:58;;;;;;;13.00;12.20;;;-0.20;99.90;;;;;;5056733;28;20973;-73
2023/02/26 01:35:39;;;;;;;16.90;11.40;;;0.00;99.90;;;;;;5059443;28;20459;-70
2023/02/26 01:38:18;;;;;;;13.10;12.03;;;0.00;99.90;;;;;;5055300;28;20463;-73
2023/02/26 01:41:24;;;;;;;15.73;11.97;;;0.00;99.90;;;;;;5059032;28;20458;-72
2023/02/26 01:44:04;;;;;;;12.77;11.60;;;0.10;99.90;;;;;;5052957;28;20816;-71
2023/02/26 01:46:36;;;;;;;11.97;10.97;;;0.10;99.90;;;;;;5060717;28;20910;-72
2023/02/26 01:49:05;;;;;;;12.87;11.90;;;0.10;99.90;;;;;;5052721;28;20467;-71
2023/02/26 01:51:50;;;;;;;14.53;11.23;;;0.10;99.90;;;;;;5057066;28;20478;-69
2023/02/26 01:54:19;;;;;;;11.43;10.57;;;0.20;99.90;;;;;;5047504;28;20480;-69
2023/02/26 01:56:49;;;;;;;12.00;11.00;;;0.20;99.90;;;;;;5049540;28;20463;-69
2023/02/26 01:59:22;;;;;;;11.57;10.57;;;0.30;99.90;;;;;;5055903;28;20463;-70
2023/02/26 02:01:50;;;;;;;11.57;10.60;;;0.20;99.90;;;;;;5055557;28;20473;-73
2023/02/26 02:04:17;;;;;;;11.23;10.50;;;0.20;99.90;;;;;;5049528;28;20514;-68
2023/02/26 02:06:46;;;;;;;10.57;9.97;;;0.20;99.90;;;;;;5058693;28;20471;-70
2023/02/26 02:09:13;;;;;;;11.97;11.10;;;0.10;99.90;;;;;;5052637;28;20479;-68
2023/02/26 02:11:53;;;;;;;12.10;10.80;;;0.10;99.90;;;;;;5055482;28;20716;-70
2023/02/26 02:14:28;;;;;;;27.03;12.07;;;0.00;99.90;;;;;;5053974;28;20962;-68
2023/02/26 02:16:59;;;;;;;11.07;10.27;;;0.00;99.90;;;;;;5058990;28;20488;-68
2023/02/26 02:19:52;;;;;;;11.63;10.63;;;0.00;99.90;;;;;;5059560;28;20466;-70
2023/02/26 02:22:44;;;;;;;10.90;10.00;;;0.00;99.90;;;;;;5049428;28;20456;-70
2023/02/26 02:25:39;;;;;;;13.13;10.67;;;-0.10;99.90;;;;;;5056282;28;20463;-69
2023/02/26 02:28:16;;;;;;;11.77;10.73;;;-0.10;99.90;;;;;;5019532;28;20470;-71
2023/02/26 02:30:56;;;;;;;9.93;9.33;;;-0.10;99.90;;;;;;5046574;28;20466;-70
2023/02/26 02:33:28;;;;;;;10.97;10.10;;;0.00;99.90;;;;;;5051688;28;20463;-69
2023/02/26 02:35:59;;;;;;;10.40;9.80;;;0.00;99.90;;;;;;5061415;28;20463;-70
2023/02/26 02:38:33;;;;;;;11.67;10.70;;;0.00;99.90;;;;;;5058027;28;20474;-70
2023/02/26 02:41:07;;;;;;;11.47;10.47;;;0.00;99.90;;;;;;5051401;28;20490;-73
2023/02/26 02:43:37;;;;;;;10.10;9.60;;;0.00;99.90;;;;;;5052310;28;20492;-70
2023/02/26 02:46:08;;;;;;;11.40;10.70;;;-0.10;99.90;;;;;;5061816;28;20855;-74
2023/02/26 02:48:39;;;;;;;12.00;10.90;;;-0.10;99.90;;;;;;5064215;28;20956;-70
2023/02/26 02:51:10;;;;;;;10.70;9.90;;;-0.10;99.90;;;;;;5055565;28;20531;-71
2023/02/26 02:53:39;;;;;;;10.23;9.50;;;-0.10;99.90;;;;;;5060596;28;21211;-72
2023/02/26 02:56:10;;;;;;;10.53;9.93;;;-0.10;99.90;;;;;;5059544;28;20810;-73
2023/02/26 02:58:43;;;;;;;10.40;9.60;;;-0.10;99.90;;;;;;5061294;28;20463;-72
2023/02/26 03:01:14;;;;;;;10.97;9.83;;;-0.20;99.90;;;;;;5054891;28;20467;-70
2023/02/26 03:03:49;;;;;;;11.57;10.43;;;-0.20;99.90;;;;;;5058729;28;20476;-72
2023/02/26 03:06:16;;;;;;;10.07;9.43;;;-0.20;99.90;;;;;;5058266;28;20466;-73
2023/02/26 03:08:46;;;;;;;11.10;10.37;;;-0.20;99.90;;;;;;5056064;28;20563;-73
2023/02/26 03:11:14;;;;;;;11.10;10.40;;;-0.20;99.90;;;;;;5056224;28;20496;-73
2023/02/26 03:13:41;;;;;;;11.10;10.47;;;-0.20;99.90;;;;;;5053508;28;20466;-73
2023/02/26 03:16:24;;;;;;;11.43;10.63;;;-0.20;99.90;;;;;;5066723;28;20465;-70
2023/02/26 03:18:57;;;;;;;10.80;10.20;;;-0.20;99.90;;;;;;5063168;28;21050;-72
2023/02/26 03:21:29;;;;;;;10.47;9.87;;;-0.30;99.90;;;;;;5059086;28;21044;-73
2023/02/26 03:24:02;;;;;;;11.67;10.60;;;-0.30;99.90;;;;;;5053513;28;20488;-73
2023/02/26 03:26:33;;;;;;;11.70;10.57;;;-0.40;99.90;;;;;;5060635;28;20459;-72
2023/02/26 03:29:06;;;;;;;11.13;10.40;;;-0.40;99.90;;;;;;5057627;28;21565;-73
2023/02/26 03:31:40;;;;;;;11.50;10.33;;;-0.50;99.90;;;;;;5059043;28;20476;-72
2023/02/26 03:34:13;;;;;;;10.33;9.73;;;-0.60;99.90;;;;;;5054310;28;20470;-72
2023/02/26 03:36:46;;;;;;;11.43;10.70;;;-0.60;99.90;;;;;;5065390;28;20467;-69
2023/02/26 03:39:18;;;;;;;14.20;10.07;;;-0.70;99.90;;;;;;5055122;28;20468;-71
2023/02/26 03:41:51;;;;;;;11.37;10.53;;;-0.70;99.90;;;;;;5057700;28;20573;-70
2023/02/26 03:44:24;;;;;;;11.20;10.30;;;-0.70;99.90;;;;;;5054867;28;20505;-73
2023/02/26 03:46:56;;;;;;;10.73;9.83;;;-0.80;99.90;;;;;;5059099;28;20500;-73
2023/02/26 03:49:29;;;;;;;12.50;11.50;;;-0.80;99.90;;;;;;5055585;28;20460;-72
2023/02/26 03:51:59;;;;;;;11.40;10.60;;;-0.80;99.90;;;;;;5063603;28;20556;-70
2023/02/26 03:54:30;;;;;;;11.33;10.73;;;-0.80;99.90;;;;;;5059865;28;20540;-71
2023/02/26 03:56:58;;;;;;;11.60;10.87;;;-0.90;99.90;;;;;;5054912;28;20470;-71
2023/02/26 03:59:25;;;;;;;11.80;11.10;;;-0.90;99.90;;;;;;5055661;28;20489;-71
2023/02/26 04:01:58;;;;;;;11.50;10.80;;;-1.00;99.90;;;;;;5056919;28;20759;-73
2023/02/26 04:04:30;;;;;;;10.73;10.13;;;-1.10;99.90;;;;;;5054811;28;20473;-72
2023/02/26 04:06:58;;;;;;;11.50;10.70;;;-1.10;99.90;;;;;;5059341;28;20840;-70
2023/02/26 04:09:26;;;;;;;11.70;11.00;;;-1.10;99.90;;;;;;5062314;28;20531;-73
2023/02/26 04:11:56;;;;;;;11.40;10.47;;;-1.10;99.90;;;;;;5054636;28;20482;-73
2023/02/26 04:14:22;;;;;;;10.73;10.23;;;-1.00;99.90;;;;;;5056744;28;20564;-73
2023/02/26 04:16:50;;;;;;;11.13;10.40;;;-1.10;99.90;;;;;;5061525;28;20473;-72
2023/02/26 04:19:18;;;;;;;10.70;9.90;;;-1.10;99.90;;;;;;5053177;28;20903;-72
2023/02/26 04:21:46;;;;;;;12.77;10.07;;;-1.10;99.90;;;;;;5064300;28;20505;-72
2023/02/26 04:24:13;;;;;;;11.10;10.47;;;-1.10;99.90;;;;;;5061532;28;20512;-73
2023/02/26 04:26:40;;;;;;;10.40;9.70;;;-1.10;99.90;;;;;;5057306;28;20494;-71
2023/02/26 04:29:06;;;;;;;11.43;10.30;;;-1.10;99.90;;;;;;5052055;28;20462;-73
2023/02/26 04:31:33;;;;;;;10.43;9.80;;;-1.10;99.90;;;;;;5058277;28;20474;-71
2023/02/26 04:34:00;;;;;;;11.17;10.57;;;-1.20;99.90;;;;;;5052489;28;20496;-72
2023/02/26 04:36:29;;;;;;;10.60;9.90;;;-1.20;99.90;;;;;;5051931;28;20470;-72
2023/02/26 04:38:55;;;;;;;11.43;9.23;;;-1.20;99.90;;;;;;5049992;28;20464;-72
2023/02/26 04:41:22;;;;;;;10.50;9.77;;;-1.20;99.90;;;;;;5060793;28;20489;-73
2023/02/26 04:43:49;;;;;;;8.67;8.30;;;-1.20;99.90;;;;;;5053544;28;20487;-72
2023/02/26 04:46:16;;;;;;;9.00;8.40;;;-1.20;99.90;;;;;;5063589;28;20856;-71
2023/02/26 04:48:44;;;;;;;9.40;8.80;;;-1.20;99.90;;;;;;5060995;28;20474;-69
2023/02/26 04:51:11;;;;;;;9.93;9.20;;;-1.20;99.90;;;;;;5050729;28;20459;-71
2023/02/26 04:53:39;;;;;;;10.00;9.50;;;-1.20;99.90;;;;;;5064487;28;20464;-73
2023/02/26 04:56:06;;;;;;;9.57;8.87;;;-1.20;99.90;;;;;;5054976;28;20465;-72
2023/02/26 04:58:33;;;;;;;9.17;8.40;;;-1.20;99.90;;;;;;5055410;28;20462;-70
2023/02/26 05:01:00;;;;;;;9.93;9.43;;;-1.20;99.90;;;;;;5057276;28;20464;-70
2023/02/26 05:03:27;;;;;;;8.80;8.30;;;-1.20;99.90;;;;;;5054764;28;20466;-73
2023/02/26 05:05:54;;;;;;;9.23;8.53;;;-1.20;99.90;;;;;;5060303;28;20467;-74
2023/02/26 05:08:21;;;;;;;9.90;8.90;;;-1.30;99.90;;;;;;5054242;28;20486;-71
2023/02/26 05:10:51;;;;;;;10.67;9.67;;;-1.30;99.90;;;;;;5060036;28;20863;-73
2023/02/26 05:13:18;;;;;;;10.33;9.40;;;-1.40;99.90;;;;;;5052725;28;20498;-73
2023/02/26 05:15:45;;;;;;;10.40;9.60;;;-1.30;99.90;;;;;;5060900;28;20640;-71
2023/02/26 05:18:12;;;;;;;10.07;9.33;;;-1.40;99.90;;;;;;5053788;28;20465;-71
2023/02/26 05:20:40;;;;;;;10.20;9.40;;;-1.30;99.90;;;;;;5053424;28;20459;-74
2023/02/26 05:23:06;;;;;;;9.27;8.77;;;-1.40;99.90;;;;;;5051219;28;20502;-71
2023/02/26 05:25:33;;;;;;;10.10;9.40;;;-1.50;99.90;;;;;;5052412;28;20497;-72
2023/02/26 05:28:02;;;;;;;10.70;9.80;;;-1.50;99.90;;;;;;5056747;28;20564;-70
2023/02/26 05:30:29;;;;;;;9.40;9.00;;;-1.40;99.90;;;;;;5055540;28;20466;-71
2023/02/26 05:32:56;;;;;;;9.27;8.77;;;-1.40;99.90;;;;;;5055525;28;20471;-71
2023/02/26 05:35:23;;;;;;;9.40;8.83;;;-1.40;99.90;;;;;;5050923;28;20506;-71
2023/02/26 05:37:49;;;;;;;9.70;8.97;;;-1.40;99.90;;;;;;5051441;28;20872;-72
2023/02/26 05:40:16;;;;;;;9.83;9.30;;;-1.40;99.90;;;;;;5048949;28;20469;-72
2023/02/26 05:42:43;;;;;;;9.73;9.00;;;-1.40;99.90;;;;;;5046721;28;20502;-73
2023/02/26 05:45:12;;;;;;;9.70;9.20;;;-1.40;99.90;;;;;;5057848;28;20513;-70
2023/02/26 05:47:39;;;;;;;10.30;9.30;;;-1.40;99.90;;;;;;5049159;28;20477;-71
2023/02/26 05:50:07;;;;;;;13.03;9.40;;;-1.40;99.90;;;;;;5054903;28;20475;-73
2023/02/26 05:52:34;;;;;;;9.57;9.07;;;-1.50;99.90;;;;;;5060444;28;20471;-72
2023/02/26 05:55:02;;;;;;;10.53;9.83;;;-1.50;99.90;;;;;;5055248;28;20476;-71
2023/02/26 05:57:29;;;;;;;10.43;9.73;;;-1.50;99.90;;;;;;5055793;28;20546;-69
2023/02/26 05:59:55;;;;;;;10.27;9.63;;;-1.50;99.90;;;;;;5056721;28;20463;-73
2023/02/26 06:02:24;;;;;;;10.87;10.13;;;-1.50;99.90;;;;;;5051939;28;20465;-71
2023/02/26 06:04:51;;;;;;;10.13;9.33;;;-1.50;99.90;;;;;;5056891;28;20486;-72
2023/02/26 06:07:18;;;;;;;9.67;8.90;;;-1.50;99.90;;;;;;5060005;28;20451;-69
2023/02/26 06:09:45;;;;;;;10.07;9.23;;;-1.50;99.90;;;;;;5058444;28;20478;-71
2023/02/26 06:12:12;;;;;;;10.40;9.60;;;-1.50;99.90;;;;;;5050714;28;21004;-68
2023/02/26 06:14:39;;;;;;;10.33;9.53;;;-1.50;99.90;;;;;;5050317;28;20477;-70
2023/02/26 06:17:06;;;;;;;10.87;10.23;;;-1.60;99.90;;;;;;5062549;28;20479;-69
2023/02/26 06:19:35;;;;;;;10.30;9.57;;;-1.60;99.90;;;;;;5055207;28;20558;-69
2023/02/26 06:22:01;;;;;;;10.97;10.13;;;-1.60;99.90;;;;;;5056277;28;21102;-69
2023/02/26 06:24:28;;;;;;;10.43;9.47;;;-1.60;99.90;;;;;;5053919;28;20498;-68
2023/02/26 06:26:56;;;;;;;10.03;9.33;;;-1.60;99.90;;;;;;5052948;28;20475;-69
2023/02/26 06:29:23;;;;;;;10.50;9.90;;;-1.60;99.90;;;;;;5053782;28;20467;-71
2023/02/26 06:31:49;;;;;;;12.27;10.80;;;-1.70;99.90;;;;;;5061032;28;20540;-70
2023/02/26 06:34:16;;;;;;;11.73;9.47;;;-1.60;99.90;;;;;;5051310;28;20458;-72
2023/02/26 06:36:45;;;;;;;10.47;9.87;;;-1.60;99.90;;;;;;5052511;28;20470;-71
2023/02/26 06:39:12;;;;;;;10.10;9.57;;;-1.70;99.90;;;;;;5050671;28;20463;-71
2023/02/26 06:41:39;;;;;;;11.30;10.40;;;-1.60;99.90;;;;;;5059229;28;21139;-72
2023/02/26 06:44:06;;;;;;;11.00;10.30;;;-1.60;99.90;;;;;;5058747;28;20480;-69
2023/02/26 06:46:33;;;;;;;9.90;9.30;;;-1.60;99.90;;;;;;5053387;28;20942;-72
2023/02/26 06:49:00;;;;;;;11.07;10.33;;;-1.70;99.90;;;;;;5048280;28;20471;-70
2023/02/26 06:51:27;;;;;;;10.80;10.30;;;-1.70;99.90;;;;;;5056014;28;20469;-72
2023/02/26 06:53:55;;;;;;;11.87;10.87;;;-1.60;99.90;;;;;;5054962;28;20465;-69
2023/02/26 06:56:22;;;;;;;10.80;9.90;;;-1.60;99.90;;;;;;5055878;28;20469;-72
2023/02/26 06:58:49;;;;;;;11.13;10.30;;;-1.50;99.90;;;;;;5050505;28;20581;-72
2023/02/26 07:01:17;;;;;;;12.00;10.70;;;-1.50;99.90;;;;;;5052499;28;20980;-71
2023/02/26 07:03:43;;;;;;;11.00;10.37;;;-1.50;99.90;;;;;;5059805;28;20472;-69
2023/02/26 07:06:12;;;;;;;10.93;10.43;;;-1.50;99.90;;;;;;5050366;28;20495;-70
2023/02/26 07:08:39;;;;;;;12.23;11.20;;;-1.40;99.90;;;;;;5059196;28;20466;-71
2023/02/26 07:11:08;;;;;;;11.40;10.80;;;-1.40;99.90;;;;;;5057383;28;20857;-68
2023/02/26 07:13:36;;;;;;;11.43;10.83;;;-1.40;99.90;;;;;;5054762;28;20490;-70
2023/02/26 07:16:06;;;;;;;13.13;11.20;;;-1.30;99.90;;;;;;5052750;28;20517;-72
2023/02/26 07:18:32;;;;;;;11.47;10.50;;;-1.30;99.90;;;;;;5049995;28;20455;-72
2023/02/26 07:20:59;;;;;;;12.30;11.30;;;-1.30;99.90;;;;;;5059195;28;20470;-70
2023/02/26 07:23:26;;;;;;;13.07;12.13;;;-1.30;99.90;;;;;;5053160;28;20472;-69
2023/02/26 07:25:53;;;;;;;11.07;10.40;;;-1.20;99.90;;;;;;5057735;28;20501;-68
2023/02/26 07:28:21;;;;;;;12.20;11.50;;;-1.20;99.90;;;;;;5053276;28;20460;-70
2023/02/26 07:30:48;;;;;;;11.43;10.80;;;-1.20;99.90;;;;;;5055272;28;20870;-72
2023/02/26 07:33:15;;;;;;;12.73;11.97;;;-1.20;99.90;;;;;;5052413;28;20535;-71
2023/02/26 07:35:42;;;;;;;13.90;12.20;;;-1.10;99.90;;;;;;5049490;28;20574;-73
2023/02/26 07:38:09;;;;;;;12.33;11.10;;;-1.00;99.90;;;;;;5062622;28;20647;-72
2023/02/26 07:40:36;;;;;;;16.43;11.90;;;-0.90;99.90;;;;;;5060662;28;20843;-69
2023/02/26 07:43:03;;;;;;;11.83;10.93;;;-0.90;99.90;;;;;;5055956;28;20489;-71
2023/02/26 07:45:31;;;;;;;13.50;12.23;;;-0.90;99.90;;;;;;5053467;28;20501;-71
2023/02/26 07:47:58;;;;;;;12.67;11.77;;;-0.90;99.90;;;;;;5057243;28;20961;-73
2023/02/26 07:50:26;;;;;;;13.23;12.23;;;-0.80;99.90;;;;;;5055863;28;20505;-73
2023/02/26 07:52:53;;;;;;;14.70;12.33;;;-0.80;99.90;;;;;;5057789;28;20474;-69
2023/02/26 07:55:20;;;;;;;13.13;11.87;;;-0.80;99.90;;;;;;5065367;28;20857;-70
2023/02/26 07:57:49;;;;;;;13.20;12.40;;;-0.70;99.90;;;;;;5058185;28;20924;-69
2023/02/26 08:00:17;;;;;;;13.93;13.10;;;-0.60;99.90;;;;;;5061560;28;20489;-71
2023/02/26 08:02:46;;;;;;;13.77;12.70;;;-0.60;99.90;;;;;;5061304;28;20476;-73
2023/02/26 08:05:13;;;;;;;13.10;12.30;;;-0.60;99.90;;;;;;5053325;28;20486;-72
2023/02/26 08:07:40;;;;;;;14.23;13.30;;;-0.50;99.90;;;;;;5058080;28;20475;-72
2023/02/26 08:10:08;;;;;;;13.30;12.40;;;-0.50;99.90;;;;;;5069116;28;20473;-70
2023/02/26 08:12:35;;;;;;;14.37;13.40;;;-0.40;99.90;;;;;;5058896;28;21032;-74
2023/02/26 08:15:02;;;;;;;14.47;13.60;;;-0.30;99.90;;;;;;5058511;28;20469;-70
2023/02/26 08:17:29;;;;;;;15.03;13.70;;;-0.20;99.90;;;;;;5055315;28;20479;-69
2023/02/26 08:19:58;;;;;;;15.20;13.87;;;-0.20;99.90;;;;;;5054946;28;20477;-73
2023/02/26 08:22:25;;;;;;;14.93;13.83;;;-0.10;99.90;;;;;;5051888;28;20904;-71
2023/02/26 08:24:53;;;;;;;14.90;13.90;;;-0.10;99.90;;;;;;5058173;28;20525;-71
2023/02/26 08:27:20;;;;;;;15.63;14.53;;;0.00;99.90;;;;;;5055407;28;20472;-73
2023/02/26 08:29:49;;;;;;;15.00;14.00;;;-0.10;99.90;;;;;;5054939;28;20467;-71
2023/02/26 08:32:17;;;;;;;14.67;13.67;;;0.00;99.90;;;;;;5052221;28;20528;-73
2023/02/26 08:34:44;;;;;;;16.83;15.10;;;0.10;99.90;;;;;;5054140;28;20833;-72
2023/02/26 08:37:13;;;;;;;15.47;14.23;;;0.20;99.90;;;;;;5050400;28;20549;-70
2023/02/26 08:39:40;;;;;;;16.07;14.83;;;0.30;99.90;;;;;;5058827;28;20479;-70
2023/02/26 08:42:11;;;;;;;16.30;15.30;;;0.40;99.90;;;;;;5055758;28;20560;-71
2023/02/26 08:44:37;;;;;;;16.03;14.60;;;0.40;99.90;;;;;;5053079;28;21378;-71
2023/02/26 08:47:04;;;;;;;15.10;14.23;;;0.50;99.90;;;;;;5059144;28;20803;-74
2023/02/26 08:49:31;;;;;;;14.80;14.10;;;0.60;99.90;;;;;;5053439;28;20463;-71
2023/02/26 08:51:58;;;;;;;15.60;14.70;;;0.70;99.90;;;;;;5054559;28;20655;-72
2023/02/26 08:54:26;;;;;;;14.73;13.97;;;0.70;99.90;;;;;;5049526;28;20495;-73
2023/02/26 08:56:54;;;;;;;16.33;15.43;;;0.80;99.90;;;;;;5054960;28;20466;-71
2023/02/26 08:59:21;;;;;;;15.77;14.70;;;1.00;99.90;;;;;;5055898;28;20459;-73
2023/02/26 09:01:48;;;;;;;14.50;13.80;;;1.00;99.90;;;;;;5057949;28;20557;-74
2023/02/26 09:04:15;;;;;;;15.33;14.53;;;1.10;99.90;;;;;;5050530;28;20469;-70
2023/02/26 09:06:42;;;;;;;15.87;15.00;;;1.00;99.90;;;;;;5054581;28;20838;-72
2023/02/26 09:09:09;;;;;;;15.30;14.50;;;1.10;99.90;;;;;;5055540;28;20463;-72
2023/02/26 09:11:37;;;;;;;15.00;14.30;;;1.00;99.90;;;;;;5057701;28;20850;-74
2023/02/26 09:14:05;;;;;;;16.17;14.80;;;1.20;99.90;;;;;;5057305;28;20467;-71
2023/02/26 09:16:34;;;;;;;15.70;14.80;;;1.20;99.90;;;;;;5051772;28;20476;-74
2023/02/26 09:19:01;;;;;;;16.00;14.90;;;1.40;99.90;;;;;;5057789;28;20468;-73
2023/02/26 09:21:28;;;;;;;15.33;13.83;;;1.30;99.90;;;;;;5053505;28;20460;-72
2023/02/26 09:23:55;;;;;;;15.73;14.30;;;1.40;99.90;;;;;;5055774;28;20467;-73
2023/02/26 09:26:22;;;;;;;16.30;14.80;;;1.40;99.90;;;;;;5055602;28;20490;-73
2023/02/26 09:28:51;;;;;;;16.40;15.30;;;1.50;99.90;;;;;;5054302;28;20463;-72
2023/02/26 09:31:18;;;;;;;16.97;15.53;;;1.60;99.90;;;;;;5051643;28;20829;-72
2023/02/26 09:33:45;;;;;;;16.10;15.10;;;1.50;99.90;;;;;;5054168;28;20474;-70
2023/02/26 09:36:12;;;;;;;16.03;15.10;;;1.60;99.90;;;;;;5054060;28;20511;-72
2023/02/26 09:38:40;;;;;;;18.27;16.87;;;1.60;99.90;;;;;;5054955;28;20455;-71
2023/02/26 09:41:09;;;;;;;16.57;15.57;;;1.70;99.90;;;;;;5055021;28;20580;-69
2023/02/26 09:44:08;;;;;;;15.97;15.10;;;1.70;99.90;;;;;;5056334;28;20478;-70
2023/02/26 09:46:45;;;;;;;16.63;15.63;;;1.80;99.90;;;;;;5046284;28;20483;-72
2023/02/26 09:49:21;;;;;;;16.50;15.60;;;2.10;99.90;;;;;;5057944;28;20455;-73
2023/02/26 09:51:52;;;;;;;16.10;15.20;;;2.30;99.90;;;;;;5055386;28;20493;-73
2023/02/26 09:54:22;;;;;;;15.50;14.80;;;2.50;99.90;;;;;;5051404;28;21128;-73
2023/02/26 09:56:51;;;;;;;17.63;16.43;;;2.60;99.90;;;;;;5054635;28;20464;-72
2023/02/26 09:59:19;;;;;;;16.67;15.77;;;2.70;99.90;;;;;;5052701;28;21134;-75
2023/02/26 10:01:55;;;;;;;15.73;14.97;;;2.70;99.90;;;;;;5058791;28;20457;-72
2023/02/26 10:04:29;;;;;;;15.47;14.70;;;2.60;99.90;;;;;;5054611;28;20501;-71
2023/02/26 10:07:08;;;;;;;16.70;15.83;;;2.40;99.90;;;;;;5053641;28;20495;-72
2023/02/26 10:09:50;;;;;;;17.23;16.33;;;2.30;99.90;;;;;;5046436;28;20471;-72
2023/02/26 10:12:19;;;;;;;16.63;15.53;;;2.20;99.90;;;;;;5054046;28;21006;-72
2023/02/26 10:14:58;;;;;;;16.47;15.50;;;2.30;99.90;;;;;;5051406;28;20532;-74
2023/02/26 10:17:32;;;;;;;17.40;16.50;;;2.30;99.90;;;;;;5052039;28;20471;-71
2023/02/26 10:20:03;;;;;;;16.83;15.83;;;2.20;99.90;;;;;;5059199;28;20483;-72
2023/02/26 10:22:36;;;;;;;17.23;16.20;;;2.30;99.90;;;;;;5052870;28;20827;-72
2023/02/26 10:25:06;;;;;;;16.77;15.83;;;2.50;99.90;;;;;;5058622;28;20836;-71
2023/02/26 10:27:55;;;;;;;17.60;16.70;;;2.90;99.90;;;;;;5050778;28;20465;-73
2023/02/26 10:30:30;;;;;;;16.30;15.30;;;3.20;99.90;;;;;;5048110;28;21265;-73
2023/02/26 10:33:06;;;;;;;17.00;15.90;;;3.70;99.90;;;;;;5050704;28;20469;-74
2023/02/26 10:35:42;;;;;;;16.73;15.73;;;3.70;99.90;;;;;;5048436;28;20497;-73
2023/02/26 10:38:13;;;;;;;16.57;15.67;;;3.40;99.90;;;;;;5050197;28;20490;-73
2023/02/26 10:40:47;;;;;;;16.67;15.77;;;3.30;99.90;;;;;;5053410;28;20466;-73
2023/02/26 10:43:19;;;;;;;17.77;16.60;;;3.50;99.90;;;;;;5049709;28;20534;-71
2023/02/26 10:46:00;;;;;;;16.70;15.80;;;3.70;99.90;;;;;;5056866;28;21035;-74
2023/02/26 10:48:45;;;;;;;16.70;15.90;;;4.20;99.90;;;;;;5051271;28;20455;-73
2023/02/26 10:51:15;;;;;;;16.17;15.30;;;4.40;99.90;;;;;;5054201;28;20458;-71
2023/02/26 10:53:46;;;;;;;16.43;15.50;;;4.80;99.90;;;;;;5054947;28;21044;-73
2023/02/26 10:56:17;;;;;;;15.60;14.87;;;5.20;99.90;;;;;;5048677;28;20859;-76
2023/02/26 10:58:46;;;;;;;16.30;15.10;;;5.30;99.90;;;;;;5061392;28;20455;-73
2023/02/26 11:01:18;;;;;;;15.73;15.03;;;5.70;99.90;;;;;;5060443;28;20474;-72
2023/02/26 11:03:50;;;;;;;16.00;15.20;;;6.00;98.60;;;;;;5056669;28;20829;-71
2023/02/26 11:06:20;;;;;;;16.70;15.90;;;6.10;97.20;;;;;;5053877;28;20497;-72
2023/02/26 11:08:50;;;;;;;16.93;16.03;;;6.00;95.80;;;;;;5055404;28;20470;-76
2023/02/26 11:11:37;;;;;;;17.33;16.43;;;5.90;96.20;;;;;;5052128;28;20462;-70
2023/02/26 11:14:04;;;;;;;16.00;15.20;;;6.30;96.20;;;;;;5051828;28;20552;-72
2023/02/26 11:16:30;;;;;;;16.83;15.90;;;6.30;95.60;;;;;;5063923;28;20467;-76
2023/02/26 11:19:01;;;;;;;16.67;15.50;;;6.50;95.80;;;;;;5063739;28;20464;-74
2023/02/26 11:21:30;;;;;;;17.17;16.07;;;6.30;95.90;;;;;;5054155;28;20857;-75
2023/02/26 11:24:01;;;;;;;17.27;16.37;;;6.40;95.90;;;;;;5057346;28;20470;-74
2023/02/26 11:26:32;;;;;;;16.73;15.90;;;7.30;94.70;;;;;;5052035;28;20482;-72
2023/02/26 11:28:59;;;;;;;18.53;17.27;;;7.70;93.10;;;;;;5053868;28;20489;-73
2023/02/26 11:31:27;;;;;;;18.07;17.00;;;7.20;91.80;;;;;;5058881;28;20864;-74
2023/02/26 11:33:59;;;;;;;17.63;16.73;;;6.50;94.00;;;;;;5064268;28;20467;-73
2023/02/26 11:36:30;;;;;;;17.87;16.57;;;5.90;93.20;;;;;;5058680;28;20791;-74
2023/02/26 11:39:01;;;;;;;17.33;16.40;;;5.10;94.00;;;;;;5051832;28;20983;-74
2023/02/26 11:41:28;;;;;;;18.10;16.90;;;5.00;95.40;;;;;;5054358;28;20485;-74
2023/02/26 11:44:02;;;;;;;17.77;16.77;;;5.70;94.60;;;;;;5058245;28;20527;-71
2023/02/26 11:46:29;;;;;;;17.70;16.50;;;5.80;94.20;;;;;;5053623;28;20490;-70
2023/02/26 11:49:00;;;;;;;17.90;16.90;;;5.50;93.20;;;;;;5064701;28;20477;-72
2023/02/26 11:51:29;;;;;;;17.33;16.23;;;5.30;93.20;;;;;;5058405;28;20966;-75
2023/02/26 11:54:00;;;;;;;17.53;16.43;;;5.60;93.70;;;;;;5052709;28;20466;-71
2023/02/26 11:56:32;;;;;;;17.20;16.20;;;6.40;91.50;;;;;;5059059;28;20474;-71
2023/02/26 11:59:07;;;;;;;16.57;15.67;;;6.90;90.60;;;;;;5050904;28;20463;-70
2023/02/26 12:01:36;;;;;;;17.30;16.33;;;7.00;88.60;;;;;;5054878;28;20594;-72
2023/02/26 12:04:03;;;;;;;16.20;15.20;;;6.90;89.00;;;;;;5062053;28;20966;-73
2023/02/26 12:06:32;;;;;;;16.13;15.33;;;8.10;88.90;;;;;;5061515;28;20494;-74
2023/02/26 12:08:59;;;;;;;17.33;16.33;;;8.10;85.10;;;;;;5054900;28;20491;-73
2023/02/26 12:11:50;;;;;;;17.77;16.87;;;7.60;82.70;;;;;;5053038;28;20488;-72
2023/02/26 12:14:34;;;;;;;18.10;17.10;;;7.10;83.40;;;;;;5057847;28;20464;-71
2023/02/26 12:17:13;;;;;;;17.60;16.80;;;6.50;87.40;;;;;;5055334;28;20550;-75
2023/02/26 12:19:45;;;;;;;17.40;16.40;;;5.90;87.00;;;;;;5061516;28;20460;-69
2023/02/26 12:22:25;;;;;;;17.43;16.43;;;6.20;87.60;;;;;;5056009;28;20485;-72
2023/02/26 12:25:17;;;;;;;17.37;16.40;;;6.20;85.20;;;;;;5062680;28;20462;-72
2023/02/26 12:28:24;;;;;;;16.27;15.47;;;6.40;88.10;;;;;;5052143;28;20823;-73
2023/02/26 12:31:17;;;;;;;16.87;15.87;;;7.00;85.90;;;;;;5059396;28;20562;-70
2023/02/26 12:33:56;;;;;;;17.73;16.77;;;7.10;81.50;;;;;;5059315;28;20455;-71
2023/02/26 12:36:37;;;;;;;16.20;15.43;;;6.50;80.70;;;;;;5057869;28;20468;-71
2023/02/26 12:39:14;;;;;;;17.50;16.70;;;6.00;81.50;;;;;;5053739;28;20463;-70
2023/02/26 12:41:56;;;;;;;17.87;16.57;;;6.20;80.90;;;;;;5059513;28;20495;-73
2023/02/26 12:44:42;;;;;;;17.13;16.20;;;6.10;84.40;;;;;;5055942;28;20459;-71
2023/02/26 12:47:25;;;;;;;18.07;16.90;;;5.90;85.80;;;;;;5067411;28;20483;-72
2023/02/26 12:50:16;;;;;;;17.80;16.80;;;6.10;87.10;;;;;;5057282;28;20455;-72